»·PEaware :: UAL1215 KPDX-KSFO

UAL1215 :: KPDX-KSFO

FLIGHT INFORMATION

Flight Status: Arrived
Operator:
United Airlines
More flights by this operator :: More flights under this callsign
Pilot: John C. (18682)
Aircraft: AIRBUS A320
(A320)
More flights by this aircraft type
Origin: KPDX Portland Intl
United States
Destination: KSFO San Francisco Intl
United States
More flights between these airports :: More routes between these airports
Route: +MINNE5 EASON Q1 ETCHY MLBEC BDEGA2
File this flight plan on PilotEdge
Remarks:
Altitude:
(Current/Filed)
37,000ft
Speed:
(Current/Filed)
448kts
Departed: 25-Apr-18 04:41 PM
Arrived: 25-Apr-18 06:16 PM
Distance/Time
Traveled:
478nm/1:35
Distance/Time
To Go:
Arrived

Flight Plot

Page will automatically refresh every two minutes.


Map Options




Map Legend


Flown Route
Filed Route
Departure Airport
Arrival Airport
Navaid (VOR, NDB)
Fix

Horizontal Profiles

Position Reports

Time Latitude Longitude Heading Altitude Ground
Speed
25-Apr-18 16:15 45.590228 -122.591577 209 38ft 0kts
25-Apr-18 16:16 45.590228 -122.591577 209 38ft 0kts
25-Apr-18 16:17 45.590228 -122.591577 209 38ft 0kts
25-Apr-18 16:18 45.590228 -122.591577 209 38ft 0kts
25-Apr-18 16:19 45.590228 -122.591577 209 38ft 0kts
25-Apr-18 16:20 45.590228 -122.591577 209 38ft 0kts
25-Apr-18 16:21 45.590228 -122.591577 209 38ft 0kts
25-Apr-18 16:22 45.590228 -122.591577 209 38ft 0kts
25-Apr-18 16:23 45.590228 -122.591577 209 38ft 0kts
25-Apr-18 16:24 45.590228 -122.591577 209 38ft 0kts
25-Apr-18 16:25 45.590228 -122.591577 209 38ft 0kts
25-Apr-18 16:26 45.590228 -122.591577 209 38ft 0kts
25-Apr-18 16:27 45.590228 -122.591577 209 38ft 0kts
25-Apr-18 16:28 45.590228 -122.591577 209 38ft 0kts
25-Apr-18 16:29 45.590228 -122.591577 209 38ft 0kts
25-Apr-18 16:30 45.590569 -122.591301 209 38ft 2kts
25-Apr-18 16:31 45.591023 -122.591277 123 38ft 0kts
25-Apr-18 16:32 45.591057 -122.591368 118 38ft 0kts
25-Apr-18 16:33 45.591057 -122.591368 118 38ft 0kts
25-Apr-18 16:34 45.589264 -122.587039 118 38ft 22kts
25-Apr-18 16:35 45.587727 -122.583083 118 38ft 1kts
25-Apr-18 16:36 45.587204 -122.579361 118 38ft 21kts
25-Apr-18 16:37 45.584332 -122.571982 118 38ft 23kts
25-Apr-18 16:38 45.582742 -122.567386 62 38ft 0kts
25-Apr-18 16:39 45.583157 -122.566975 13 38ft 8kts
25-Apr-18 16:40 45.593868 -122.593661 298 775ft 182kts
25-Apr-18 16:41 45.616735 -122.666539 287 4273ft 242kts
25-Apr-18 16:42 45.652979 -122.759643 299 7992ft 285kts
25-Apr-18 16:43 45.662774 -122.869326 248 11391ft 322kts
25-Apr-18 16:44 45.584890 -122.928011 184 14386ft 348kts
25-Apr-18 16:45 45.486393 -122.938339 185 16974ft 365kts
25-Apr-18 16:46 45.383758 -122.950101 185 19719ft 378kts
25-Apr-18 16:47 45.277538 -122.962408 185 22145ft 391kts
25-Apr-18 16:48 45.170948 -122.994645 200 24310ft 401kts
25-Apr-18 16:49 45.064902 -123.048038 199 26435ft 407kts
25-Apr-18 16:50 44.958725 -123.101236 200 28575ft 406kts
25-Apr-18 16:51 44.852243 -123.154437 200 30135ft 413kts
25-Apr-18 16:52 44.750403 -123.205127 200 31414ft 421kts
25-Apr-18 16:53 44.631922 -123.263840 201 32794ft 426kts
25-Apr-18 16:54 44.521261 -123.317802 197 34308ft 422kts
25-Apr-18 16:55 44.423752 -123.325961 181 35383ft 426kts
25-Apr-18 16:56 44.306500 -123.321114 181 36597ft 424kts
25-Apr-18 16:57 44.188229 -123.316392 181 37149ft 423kts
25-Apr-18 16:58 44.071023 -123.311732 181 37154ft 424kts
25-Apr-18 16:59 43.953278 -123.307065 182 37154ft 424kts
25-Apr-18 17:00 43.836623 -123.302459 181 37158ft 425kts
25-Apr-18 17:01 43.718481 -123.297810 181 37137ft 425kts
25-Apr-18 17:02 43.600876 -123.293200 181 37116ft 424kts
25-Apr-18 17:03 43.483055 -123.288602 181 37104ft 424kts
25-Apr-18 17:04 43.365858 -123.284046 182 37103ft 424kts
25-Apr-18 17:05 43.248182 -123.279490 181 37101ft 424kts
25-Apr-18 17:06 43.130445 -123.274948 181 37102ft 424kts
25-Apr-18 17:07 43.013035 -123.270435 181 37107ft 424kts
25-Apr-18 17:08 42.896081 -123.265954 179 37099ft 422kts
25-Apr-18 17:09 42.779554 -123.261510 179 37097ft 421kts
25-Apr-18 17:10 42.663028 -123.257084 179 37083ft 420kts
25-Apr-18 17:11 42.548964 -123.252767 179 37076ft 419kts
25-Apr-18 17:12 42.431768 -123.248376 179 37079ft 419kts
25-Apr-18 17:13 42.314333 -123.244044 179 37083ft 420kts
25-Apr-18 17:14 42.198039 -123.239764 179 37086ft 419kts
25-Apr-18 17:15 42.081465 -123.235490 179 37087ft 420kts
25-Apr-18 17:16 41.965035 -123.231236 179 37089ft 420kts
25-Apr-18 17:17 41.849568 -123.227034 179 37106ft 420kts
25-Apr-18 17:18 41.733258 -123.222819 179 37143ft 421kts
25-Apr-18 17:19 41.616375 -123.218594 179 37183ft 421kts
25-Apr-18 17:20 41.499551 -123.214544 179 37177ft 420kts
25-Apr-18 17:21 41.385055 -123.210589 179 37167ft 420kts
25-Apr-18 17:22 41.268559 -123.207138 180 37161ft 420kts
25-Apr-18 17:23 41.152267 -123.204229 180 37161ft 419kts
25-Apr-18 17:24 41.036009 -123.201294 180 37149ft 419kts
25-Apr-18 17:25 40.922188 -123.198424 180 37135ft 417kts
25-Apr-18 17:26 40.809084 -123.195588 180 37120ft 416kts
25-Apr-18 17:27 40.691602 -123.192654 180 37113ft 416kts
25-Apr-18 17:28 40.576177 -123.189778 180 37111ft 416kts
25-Apr-18 17:29 40.460988 -123.186914 180 37111ft 416kts
25-Apr-18 17:30 40.345791 -123.184035 180 37111ft 416kts
25-Apr-18 17:31 40.230633 -123.181171 180 37115ft 416kts
25-Apr-18 17:32 40.115144 -123.178209 180 37114ft 416kts
25-Apr-18 17:33 40.000102 -123.175658 180 37096ft 416kts
25-Apr-18 17:34 39.885436 -123.171313 179 37097ft 416kts
25-Apr-18 17:35 39.769968 -123.165851 179 37102ft 416kts
25-Apr-18 17:36 39.655025 -123.160523 179 37104ft 417kts
25-Apr-18 17:37 39.538909 -123.155172 179 37101ft 416kts
25-Apr-18 17:38 39.423845 -123.149892 179 37094ft 416kts
25-Apr-18 17:39 39.308373 -123.144613 179 37092ft 416kts
25-Apr-18 17:40 39.193369 -123.139373 179 37092ft 416kts
25-Apr-18 17:41 39.079235 -123.120488 160 37097ft 422kts
25-Apr-18 17:42 38.977962 -123.042757 150 36305ft 427kts
25-Apr-18 17:43 38.877879 -122.964411 159 34460ft 423kts
25-Apr-18 17:44 38.764930 -122.926461 169 31630ft 424kts
25-Apr-18 17:45 38.651959 -122.892999 169 29375ft 412kts
25-Apr-18 17:46 38.543752 -122.861058 168 27649ft 388kts
25-Apr-18 17:47 38.441239 -122.830892 168 25742ft 372kts
25-Apr-18 17:48 38.344691 -122.802576 168 23826ft 358kts
25-Apr-18 17:49 38.247822 -122.774237 168 21865ft 344kts
25-Apr-18 17:50 38.156960 -122.747771 167 19991ft 331kts
25-Apr-18 17:51 38.068876 -122.722200 167 18149ft 320kts
25-Apr-18 17:52 37.983316 -122.697426 167 16341ft 311kts
25-Apr-18 17:53 37.900801 -122.671534 154 14560ft 303kts
25-Apr-18 17:54 37.835942 -122.605901 141 12844ft 297kts
25-Apr-18 17:55 37.774071 -122.540287 141 11423ft 283kts
25-Apr-18 17:56 37.716211 -122.479012 141 11054ft 278kts
25-Apr-18 17:57 37.656911 -122.415973 141 11043ft 279kts
25-Apr-18 17:58 37.595785 -122.356610 152 11042ft 278kts
25-Apr-18 17:59 37.528044 -122.313091 154 10734ft 271kts
25-Apr-18 18:00 37.467563 -122.272994 154 9532ft 231kts
25-Apr-18 18:01 37.414156 -122.229433 120 8334ft 240kts
25-Apr-18 18:02 37.399042 -122.146248 104 7181ft 247kts
25-Apr-18 18:03 37.384671 -122.062471 104 6163ft 244kts
25-Apr-18 18:04 37.369854 -121.980286 104 5209ft 241kts
25-Apr-18 18:05 37.403518 -121.927368 342 4233ft 224kts
25-Apr-18 18:06 37.446306 -121.967030 305 4028ft 189kts
25-Apr-18 18:07 37.472923 -122.026534 296 4013ft 180kts
25-Apr-18 18:08 37.496160 -122.082256 297 4003ft 179kts
25-Apr-18 18:09 37.519332 -122.137752 297 3829ft 178kts
25-Apr-18 18:10 37.542245 -122.192559 297 2928ft 173kts
25-Apr-18 18:11 37.562855 -122.241819 297 2059ft 143kts
25-Apr-18 18:12 37.579005 -122.280386 297 1389ft 113kts
25-Apr-18 18:13 37.593622 -122.315244 297 798ft 112kts
25-Apr-18 18:14 37.607962 -122.349372 297 201ft 110kts
25-Apr-18 18:15 37.617913 -122.373144 297 16ft 34kts
25-Apr-18 18:16 37.618974 -122.377698 267 28ft 4kts
25-Apr-18 18:17 37.619518 -122.381728 285 32ft 12kts
25-Apr-18 18:18 37.619197 -122.383540 291 32ft 0kts
25-Apr-18 18:19 37.619196 -122.383540 291 32ft 0kts
25-Apr-18 18:20 37.619196 -122.383540 291 32ft 0kts
25-Apr-18 18:21 37.619196 -122.383540 291 32ft 0kts
25-Apr-18 18:22 37.619196 -122.383540 291 32ft 0kts
25-Apr-18 18:23 37.619196 -122.383540 291 32ft 0kts
25-Apr-18 18:24 37.619196 -122.383540 291 32ft 0kts
25-Apr-18 18:25 37.619196 -122.383540 291 32ft 0kts

Navigation Log

Ident Type
1. KPDX Airport
2. EASON Fix
3. EBINY Fix
4. ENVIE Fix
5. ETCHY Fix
6. KSFO Airport